Time;durP1;ratioP1;P1;durP2;ratioP2;P2;SDS_P1;SDS_P2;PMS_P1;PMS_P2;Temp;Humidity;BMP_temperature;BMP_pressure;BME280_temperature;BME280_humidity;BME280_pressure;Samples;Min_cycle;Max_cycle;Signal;HPM_P1;HPM_P2
2022/10/06 00:01:56;;;;;;;25.52;9.38;;;;;;;;;;6175282;28;20046;-55
2022/10/06 00:04:57;;;;;;;21.83;8.68;;;;;;;;;;6168784;28;20078;-53
2022/10/06 00:07:58;;;;;;;23.65;8.55;;;;;;;;;;6168241;28;20065;-53
2022/10/06 00:10:59;;;;;;;21.85;9.25;;;;;;;;;;6167295;28;20487;-53
2022/10/06 00:13:59;;;;;;;17.00;8.02;;;;;;;;;;6161511;28;20047;-53
2022/10/06 00:17:00;;;;;;;24.88;9.10;;;;;;;;;;6158030;28;20047;-49
2022/10/06 00:20:01;;;;;;;21.42;8.95;;;;;;;;;;6159742;28;20193;-53
2022/10/06 00:23:02;;;;;;;22.73;9.00;;;;;;;;;;6163621;28;20050;-54
2022/10/06 00:26:02;;;;;;;25.63;9.27;;;;;;;;;;6157102;28;20486;-55
2022/10/06 00:29:03;;;;;;;22.55;9.23;;;;;;;;;;6165237;28;20181;-54
2022/10/06 00:32:03;;;;;;;28.50;10.30;;;;;;;;;;6161516;28;20130;-54
2022/10/06 00:35:06;;;;;;;24.50;8.55;;;;;;;;;;6161002;28;20054;-52
2022/10/06 00:38:06;;;;;;;;;;;;;;;;;;6160386;28;20043;-54
2022/10/06 00:41:11;;;;;;;23.13;8.68;;;;;;;;;;6162721;28;19948;-51
2022/10/06 00:44:11;;;;;;;22.73;9.20;;;;;;;;;;6164361;28;20134;-54
2022/10/06 00:47:13;;;;;;;22.33;8.85;;;;;;;;;;6163050;28;20570;-51
2022/10/06 00:50:13;;;;;;;28.30;9.13;;;;;;;;;;6167743;28;20062;-54
2022/10/06 00:53:14;;;;;;;25.23;9.60;;;;;;;;;;6165993;28;20039;-55
2022/10/06 00:56:15;;;;;;;21.63;9.18;;;;;;;;;;6165768;28;20449;-54
2022/10/06 00:59:17;;;;;;;23.55;8.50;;;;;;;;;;6165880;28;20051;-55
2022/10/06 01:02:22;;;;;;;20.75;9.43;;;;;;;;;;6163824;28;20193;-53
2022/10/06 01:05:28;;;;;;;23.90;9.50;;;;;;;;;;6165079;28;20051;-55
2022/10/06 01:08:31;;;;;;;20.83;9.38;;;;;;;;;;6165795;28;20060;-55
2022/10/06 01:11:33;;;;;;;21.80;8.65;;;;;;;;;;6166516;28;20055;-55
2022/10/06 01:14:37;;;;;;;20.60;8.15;;;;;;;;;;6165684;28;20054;-53
2022/10/06 01:18:08;;;;;;;21.25;9.05;;;;;;;;;;6164675;28;20043;-54
2022/10/06 01:21:16;;;;;;;22.08;8.20;;;;;;;;;;6165105;28;20054;-53
2022/10/06 01:24:17;;;;;;;19.00;9.02;;;;;;;;;;6165204;28;20136;-52
2022/10/06 01:27:19;;;;;;;21.17;8.63;;;;;;;;;;6162661;28;20074;-52
2022/10/06 01:30:27;;;;;;;22.05;9.15;;;;;;;;;;6163826;28;20078;-56
2022/10/06 01:33:28;;;;;;;19.73;8.32;;;;;;;;;;6164031;28;20150;-55
2022/10/06 01:36:29;;;;;;;18.13;7.88;;;;;;;;;;6164681;28;20138;-52
2022/10/06 01:39:29;;;;;;;19.63;8.10;;;;;;;;;;6164787;28;20043;-54
2022/10/06 01:42:32;;;;;;;20.40;9.35;;;;;;;;;;6164962;28;20078;-53
2022/10/06 01:45:32;;;;;;;15.75;7.95;;;;;;;;;;6166005;28;20047;-54
2022/10/06 01:48:35;;;;;;;16.60;8.32;;;;;;;;;;6163343;28;20050;-54
2022/10/06 01:51:36;;;;;;;18.73;7.53;;;;;;;;;;6164330;28;20105;-54
2022/10/06 01:54:36;;;;;;;18.95;7.72;;;;;;;;;;6165047;28;20055;-54
2022/10/06 01:57:39;;;;;;;15.60;7.65;;;;;;;;;;6163863;28;20035;-54
2022/10/06 02:00:39;;;;;;;18.02;8.10;;;;;;;;;;6162154;28;20038;-55
2022/10/06 02:03:40;;;;;;;18.90;7.95;;;;;;;;;;6165140;28;20042;-53
2022/10/06 02:06:41;;;;;;;18.23;7.88;;;;;;;;;;6164205;28;20047;-54
2022/10/06 02:09:41;;;;;;;19.25;7.50;;;;;;;;;;6163716;28;20506;-54
2022/10/06 02:12:42;;;;;;;19.13;7.45;;;;;;;;;;6163286;28;20051;-53
2022/10/06 02:15:42;;;;;;;18.05;8.63;;;;;;;;;;6163097;28;20043;-51
2022/10/06 02:18:43;;;;;;;26.08;8.50;;;;;;;;;;6163799;28;20137;-51
2022/10/06 02:21:44;;;;;;;15.57;6.78;;;;;;;;;;6161550;28;22284;-54
2022/10/06 02:24:44;;;;;;;20.10;8.57;;;;;;;;;;6164878;28;20514;-52
2022/10/06 02:27:45;;;;;;;16.85;7.25;;;;;;;;;;6161456;28;20053;-55
2022/10/06 02:30:45;;;;;;;20.05;7.68;;;;;;;;;;6164300;28;20063;-56
2022/10/06 02:33:46;;;;;;;15.18;7.28;;;;;;;;;;6163799;28;20056;-53
2022/10/06 02:36:47;;;;;;;17.55;7.97;;;;;;;;;;6163329;28;20074;-53
2022/10/06 02:39:48;;;;;;;17.23;7.07;;;;;;;;;;6162960;28;20045;-52
2022/10/06 02:42:49;;;;;;;15.15;7.13;;;;;;;;;;6164442;28;20759;-52
2022/10/06 02:45:57;;;;;;;19.30;8.38;;;;;;;;;;6163629;28;21310;-54
2022/10/06 02:48:58;;;;;;;19.17;7.80;;;;;;;;;;6159950;28;20821;-53
2022/10/06 02:51:58;;;;;;;22.05;8.57;;;;;;;;;;6162804;28;20042;-51
2022/10/06 02:55:01;;;;;;;22.67;10.07;;;;;;;;;;6166445;28;20054;-54
2022/10/06 02:58:02;;;;;;;26.60;10.10;;;;;;;;;;6161238;28;20070;-54
2022/10/06 03:01:09;;;;;;;20.40;9.63;;;;;;;;;;6162085;28;20033;-52
2022/10/06 03:04:10;;;;;;;22.10;9.20;;;;;;;;;;6162327;28;20529;-54
2022/10/06 03:07:11;;;;;;;20.63;9.80;;;;;;;;;;6163216;28;20145;-53
2022/10/06 03:10:12;;;;;;;28.42;10.27;;;;;;;;;;6162178;28;20055;-53
2022/10/06 03:13:12;;;;;;;25.52;9.90;;;;;;;;;;6161122;28;20066;-54
2022/10/06 03:16:15;;;;;;;21.75;8.93;;;;;;;;;;6162295;28;20486;-54
2022/10/06 03:19:16;;;;;;;21.35;9.50;;;;;;;;;;6164774;28;20078;-52
2022/10/06 03:22:16;;;;;;;25.88;10.82;;;;;;;;;;6161927;28;20065;-52
2022/10/06 03:25:17;;;;;;;30.08;10.52;;;;;;;;;;6163158;28;20069;-55
2022/10/06 03:28:17;;;;;;;25.65;9.93;;;;;;;;;;6159965;28;20503;-54
2022/10/06 03:31:18;;;;;;;22.38;9.68;;;;;;;;;;6163242;28;20083;-54
2022/10/06 03:34:19;;;;;;;27.30;10.52;;;;;;;;;;6162702;28;20110;-53
2022/10/06 03:37:20;;;;;;;27.42;10.30;;;;;;;;;;6160115;28;21164;-54
2022/10/06 03:40:20;;;;;;;30.35;11.18;;;;;;;;;;6161180;28;20039;-53
2022/10/06 03:43:21;;;;;;;24.88;10.30;;;;;;;;;;6160378;28;21432;-52
2022/10/06 03:46:23;;;;;;;27.45;10.27;;;;;;;;;;6166128;28;20097;-54
2022/10/06 03:49:24;;;;;;;31.13;10.40;;;;;;;;;;6162455;28;20137;-54
2022/10/06 03:52:25;;;;;;;29.67;10.75;;;;;;;;;;6162791;28;20533;-52
2022/10/06 03:55:25;;;;;;;32.53;11.73;;;;;;;;;;6161547;28;20059;-52
2022/10/06 03:58:27;;;;;;;28.95;10.68;;;;;;;;;;6160081;28;20514;-53
2022/10/06 04:01:28;;;;;;;;;;;;;;;;;;6164152;28;20047;-58
2022/10/06 04:04:28;;;;;;;27.75;10.25;;;;;;;;;;6168851;28;19937;-54
2022/10/06 04:07:29;;;;;;;25.80;10.32;;;;;;;;;;6167603;28;20063;-54
2022/10/06 04:10:29;;;;;;;28.60;10.45;;;;;;;;;;6177584;28;20462;-55
2022/10/06 04:13:30;;;;;;;28.40;10.20;;;;;;;;;;6164554;28;20038;-50
2022/10/06 04:16:33;;;;;;;27.67;11.20;;;;;;;;;;6142960;28;20042;-53
2022/10/06 04:19:34;;;;;;;26.27;10.55;;;;;;;;;;6161116;28;20109;-52
2022/10/06 04:22:35;;;;;;;30.73;10.90;;;;;;;;;;6161581;28;20451;-53
2022/10/06 04:25:35;;;;;;;27.55;10.98;;;;;;;;;;6162151;28;20530;-53
2022/10/06 04:28:37;;;;;;;25.85;10.40;;;;;;;;;;6166423;28;21096;-55
2022/10/06 04:31:39;;;;;;;21.35;9.00;;;;;;;;;;6167132;28;20042;-53
2022/10/06 04:34:40;;;;;;;22.30;9.38;;;;;;;;;;6167315;28;20046;-55
2022/10/06 04:37:40;;;;;;;27.13;10.13;;;;;;;;;;6165668;28;20066;-52
2022/10/06 04:40:41;;;;;;;29.05;11.55;;;;;;;;;;6166914;28;20043;-53
2022/10/06 04:43:45;;;;;;;27.67;11.63;;;;;;;;;;6161715;28;20047;-50
2022/10/06 04:46:45;;;;;;;37.13;13.00;;;;;;;;;;6160778;28;20063;-51
2022/10/06 04:49:46;;;;;;;32.55;12.65;;;;;;;;;;6155892;28;20128;-51
2022/10/06 04:52:46;;;;;;;33.90;12.05;;;;;;;;;;6159414;28;20055;-53
2022/10/06 04:55:47;;;;;;;28.38;11.90;;;;;;;;;;6159527;28;20062;-52
2022/10/06 04:58:49;;;;;;;38.00;11.73;;;;;;;;;;6160575;28;20521;-52
2022/10/06 05:01:49;;;;;;;26.38;10.40;;;;;;;;;;6156778;28;20142;-51
2022/10/06 05:04:50;;;;;;;30.95;10.00;;;;;;;;;;6159664;28;20495;-51
2022/10/06 05:07:50;;;;;;;27.48;9.30;;;;;;;;;;6163948;28;20074;-55
2022/10/06 05:11:05;;;;;;;28.48;9.50;;;;;;;;;;6167886;28;20142;-52
2022/10/06 05:14:06;;;;;;;23.77;10.35;;;;;;;;;;6168127;28;20494;-52
2022/10/06 05:17:06;;;;;;;26.90;10.32;;;;;;;;;;6165567;28;20051;-60
2022/10/06 05:20:09;;;;;;;27.38;9.77;;;;;;;;;;6167016;28;20057;-59
2022/10/06 05:23:10;;;;;;;25.50;9.73;;;;;;;;;;6167984;28;20066;-50
2022/10/06 05:26:13;;;;;;;25.35;10.85;;;;;;;;;;6166027;28;21507;-52
2022/10/06 05:29:13;;;;;;;22.90;9.32;;;;;;;;;;6166709;28;20051;-55
2022/10/06 05:32:14;;;;;;;27.27;11.88;;;;;;;;;;6168874;28;20082;-52
2022/10/06 05:35:14;;;;;;;33.97;12.27;;;;;;;;;;6169610;28;20051;-53
2022/10/06 05:38:15;;;;;;;27.33;12.40;;;;;;;;;;6178713;28;20053;-52
2022/10/06 05:41:22;;;;;;;28.77;12.45;;;;;;;;;;6160297;28;20040;-52
2022/10/06 05:44:23;;;;;;;21.38;9.68;;;;;;;;;;6160960;28;20087;-51
2022/10/06 05:47:23;;;;;;;22.48;8.90;;;;;;;;;;6161625;28;20144;-51
2022/10/06 05:50:24;;;;;;;31.52;9.07;;;;;;;;;;6161755;28;20154;-55
2022/10/06 05:53:26;;;;;;;20.95;8.98;;;;;;;;;;6163026;28;20055;-52
2022/10/06 05:56:31;;;;;;;;;;;;;;;;;;6164796;28;20529;-52
2022/10/06 05:59:31;;;;;;;22.63;7.85;;;;;;;;;;6162772;28;19934;-56
2022/10/06 06:02:32;;;;;;;20.55;8.10;;;;;;;;;;6164442;28;20047;-51
2022/10/06 06:05:32;;;;;;;21.60;8.13;;;;;;;;;;6163764;28;20059;-52
2022/10/06 06:08:33;;;;;;;23.20;8.50;;;;;;;;;;6162669;28;20062;-51
2022/10/06 06:11:36;;;;;;;16.85;8.55;;;;;;;;;;6165683;28;20097;-53
2022/10/06 06:17:55;;;;;;;24.48;10.15;;;;;;;;;;6169554;28;20162;-54
2022/10/06 06:20:57;;;;;;;21.02;8.85;;;;;;;;;;6168605;28;20063;-56
2022/10/06 06:23:58;;;;;;;23.48;9.60;;;;;;;;;;6170408;28;20061;-51
2022/10/06 06:26:58;;;;;;;21.92;9.75;;;;;;;;;;6165934;28;20632;-52
2022/10/06 06:29:59;;;;;;;25.60;9.23;;;;;;;;;;6166752;28;20045;-55
2022/10/06 06:33:00;;;;;;;20.50;9.13;;;;;;;;;;6167825;28;20046;-53
2022/10/06 06:36:02;;;;;;;21.95;9.55;;;;;;;;;;6168488;28;20474;-52
2022/10/06 06:39:05;;;;;;;19.67;9.13;;;;;;;;;;6167958;28;20525;-55
2022/10/06 06:42:07;;;;;;;20.77;8.80;;;;;;;;;;6167122;28;20082;-53
2022/10/06 06:45:08;;;;;;;17.60;8.48;;;;;;;;;;6165425;28;20057;-55
2022/10/06 06:48:14;;;;;;;20.40;8.40;;;;;;;;;;6165546;28;20109;-54
2022/10/06 06:51:15;;;;;;;27.15;9.00;;;;;;;;;;6161342;28;20759;-54
2022/10/06 06:54:17;;;;;;;81.40;37.42;;;;;;;;;;6161412;28;20043;-58
2022/10/06 06:57:18;;;;;;;27.13;12.57;;;;;;;;;;6164562;28;20085;-51
2022/10/06 07:00:18;;;;;;;26.83;11.77;;;;;;;;;;6163928;28;20043;-54
2022/10/06 07:03:20;;;;;;;22.25;9.60;;;;;;;;;;6167973;28;20063;-52
2022/10/06 07:06:25;;;;;;;23.05;9.30;;;;;;;;;;6166016;28;20046;-52
2022/10/06 07:09:26;;;;;;;22.85;8.77;;;;;;;;;;6162738;28;20598;-52
2022/10/06 07:12:26;;;;;;;21.35;8.63;;;;;;;;;;6161176;28;20091;-57
2022/10/06 07:25:27;;;;;;;20.75;8.57;;;;;;;;;;6159889;28;20043;-54
2022/10/06 07:28:31;;;;;;;21.13;8.45;;;;;;;;;;6163085;28;20085;-56
2022/10/06 07:31:34;;;;;;;21.10;7.97;;;;;;;;;;6162400;28;20043;-55
2022/10/06 07:34:36;;;;;;;22.90;9.20;;;;;;;;;;6164229;28;21713;-55
2022/10/06 07:37:36;;;;;;;22.35;9.02;;;;;;;;;;6160447;28;20043;-55
2022/10/06 07:40:37;;;;;;;21.05;9.45;;;;;;;;;;6162202;28;20073;-57
2022/10/06 07:43:37;;;;;;;22.88;8.82;;;;;;;;;;6160979;28;20417;-55
2022/10/06 07:46:38;;;;;;;21.38;10.02;;;;;;;;;;6161194;28;20631;-56
2022/10/06 07:49:38;;;;;;;19.80;9.18;;;;;;;;;;6163680;28;20158;-54
2022/10/06 07:52:39;;;;;;;18.63;8.52;;;;;;;;;;6166525;28;20085;-59
2022/10/06 07:55:44;;;;;;;26.20;8.65;;;;;;;;;;6162698;28;20043;-58
2022/10/06 07:58:46;;;;;;;19.27;8.38;;;;;;;;;;6161291;28;20047;-49
2022/10/06 08:01:47;;;;;;;16.85;8.30;;;;;;;;;;6159899;28;20043;-56
2022/10/06 08:04:48;;;;;;;23.20;8.48;;;;;;;;;;6160844;28;20046;-52
2022/10/06 08:07:50;;;;;;;20.05;8.65;;;;;;;;;;6166802;28;20122;-53
2022/10/06 08:10:54;;;;;;;;;;;;;;;;;;6168847;28;20497;-50
2022/10/06 08:13:55;;;;;;;21.25;8.50;;;;;;;;;;6167582;28;20445;-51
2022/10/06 08:16:56;;;;;;;21.20;9.18;;;;;;;;;;6163223;28;20043;-51
2022/10/06 08:19:56;;;;;;;23.05;9.05;;;;;;;;;;6162441;28;20054;-53
2022/10/06 08:22:57;;;;;;;29.67;10.30;;;;;;;;;;6160283;28;20047;-59
2022/10/06 08:25:57;;;;;;;17.85;8.35;;;;;;;;;;6157298;28;20043;-59
2022/10/06 08:29:04;;;;;;;20.50;10.00;;;;;;;;;;6161128;28;20141;-51
2022/10/06 08:32:05;;;;;;;21.10;9.27;;;;;;;;;;6163812;28;20082;-51
2022/10/06 08:35:05;;;;;;;23.10;9.30;;;;;;;;;;6161096;28;20078;-57
2022/10/06 08:38:06;;;;;;;27.77;10.15;;;;;;;;;;6161678;28;20051;-51
2022/10/06 08:41:21;;;;;;;27.27;9.63;;;;;;;;;;6159158;28;20146;-52
2022/10/06 08:44:40;;;;;;;25.80;9.43;;;;;;;;;;6158096;28;20086;-55
2022/10/06 08:47:51;;;;;;;20.60;9.65;;;;;;;;;;6155467;28;20071;-55
2022/10/06 08:51:03;;;;;;;22.90;9.63;;;;;;;;;;6158433;28;20047;-55
2022/10/06 08:54:12;;;;;;;;;;;;;;;;;;6159559;28;20054;-57
2022/10/06 08:57:20;;;;;;;22.67;9.02;;;;;;;;;;6159447;28;19933;-50
2022/10/06 09:00:21;;;;;;;20.38;9.18;;;;;;;;;;6160509;28;20042;-53
2022/10/06 09:03:28;;;;;;;23.38;9.75;;;;;;;;;;6161837;28;20105;-53
2022/10/06 09:06:50;;;;;;;23.77;9.80;;;;;;;;;;6164677;28;20181;-50
2022/10/06 09:10:04;;;;;;;20.98;9.15;;;;;;;;;;6164044;28;20074;-59
2022/10/06 09:13:17;;;;;;;22.98;9.30;;;;;;;;;;6170086;28;20410;-53
2022/10/06 09:16:28;;;;;;;22.60;9.43;;;;;;;;;;6169334;28;20057;-55
2022/10/06 09:19:39;;;;;;;23.02;9.50;;;;;;;;;;6164832;28;20054;-54
2022/10/06 09:22:40;;;;;;;22.27;9.13;;;;;;;;;;6162209;28;20619;-54
2022/10/06 09:25:41;;;;;;;18.23;8.53;;;;;;;;;;6165410;28;20565;-54
2022/10/06 09:28:45;;;;;;;22.75;8.85;;;;;;;;;;6163812;28;20343;-55
2022/10/06 09:31:52;;;;;;;21.55;9.13;;;;;;;;;;6162956;28;20173;-55
2022/10/06 09:35:01;;;;;;;18.33;9.43;;;;;;;;;;6164176;28;20073;-54
2022/10/06 09:38:03;;;;;;;20.90;9.23;;;;;;;;;;6166854;28;20050;-54
2022/10/06 09:41:04;;;;;;;18.50;8.77;;;;;;;;;;6167391;28;20050;-53
2022/10/06 09:44:23;;;;;;;23.55;10.05;;;;;;;;;;6169939;28;20046;-52
2022/10/06 09:47:56;;;;;;;23.75;9.88;;;;;;;;;;6157951;28;20054;-52
2022/10/06 09:51:16;;;;;;;22.10;9.88;;;;;;;;;;6150547;28;20039;-62
2022/10/06 09:54:17;;;;;;;32.17;11.13;;;;;;;;;;6164536;28;20074;-56
2022/10/06 09:57:24;;;;;;;25.48;10.50;;;;;;;;;;6164850;28;20173;-56
2022/10/06 10:00:29;;;;;;;19.55;8.73;;;;;;;;;;6164197;28;20055;-52
2022/10/06 10:03:51;;;;;;;17.23;7.60;;;;;;;;;;6166362;28;20142;-53
2022/10/06 10:06:52;;;;;;;15.93;7.82;;;;;;;;;;6169206;28;20046;-58
2022/10/06 10:10:13;;;;;;;16.60;8.20;;;;;;;;;;6167881;28;20039;-60
2022/10/06 10:13:17;;;;;;;17.38;8.40;;;;;;;;;;6163406;28;20042;-53
2022/10/06 10:16:24;;;;;;;21.67;9.35;;;;;;;;;;6162107;28;20141;-54
2022/10/06 10:19:32;;;;;;;29.08;10.35;;;;;;;;;;6160217;28;20046;-54
2022/10/06 10:22:35;;;;;;;19.88;8.13;;;;;;;;;;6160885;28;20050;-54
2022/10/06 10:26:12;;;;;;;15.68;7.78;;;;;;;;;;6163915;28;20507;-55
2022/10/06 10:29:32;;;;;;;18.50;7.93;;;;;;;;;;6153426;28;20866;-52
2022/10/06 10:33:13;;;;;;;18.10;9.77;;;;;;;;;;6161706;28;20502;-60
2022/10/06 10:36:16;;;;;;;15.93;7.80;;;;;;;;;;6139136;28;20170;-57
2022/10/06 10:39:51;;;;;;;17.77;8.02;;;;;;;;;;6162989;28;20708;-56
2022/10/06 10:43:09;;;;;;;15.45;8.18;;;;;;;;;;6168302;28;20169;-54
2022/10/06 10:46:15;;;;;;;19.05;8.23;;;;;;;;;;6163019;28;20086;-54
2022/10/06 10:49:28;;;;;;;15.85;7.90;;;;;;;;;;6160908;28;20141;-55
2022/10/06 10:52:34;;;;;;;16.08;8.00;;;;;;;;;;6162665;28;20055;-54
2022/10/06 10:55:41;;;;;;;15.88;7.05;;;;;;;;;;6161977;28;20142;-55
2022/10/06 10:58:43;;;;;;;15.02;7.50;;;;;;;;;;6162730;28;20560;-57
2022/10/06 11:01:53;;;;;;;12.85;7.22;;;;;;;;;;6161307;28;20558;-57
2022/10/06 11:05:19;;;;;;;17.10;7.13;;;;;;;;;;6162696;28;20043;-53
2022/10/06 11:08:41;;;;;;;13.55;6.97;;;;;;;;;;6162167;28;20148;-53
2022/10/06 11:11:42;;;;;;;;;;;;;;;;;;6162674;28;20073;-57
2022/10/06 11:14:58;;;;;;;11.52;6.70;;;;;;;;;;6160885;28;19925;-56
2022/10/06 11:18:25;;;;;;;18.75;7.00;;;;;;;;;;6161937;28;20062;-53
2022/10/06 11:21:35;;;;;;;14.48;7.35;;;;;;;;;;6161433;28;20049;-53
2022/10/06 11:24:51;;;;;;;15.90;7.25;;;;;;;;;;6162877;28;20121;-55
2022/10/06 11:28:05;;;;;;;16.05;7.20;;;;;;;;;;6157950;28;20138;-52
2022/10/06 11:31:19;;;;;;;14.27;7.50;;;;;;;;;;6162520;28;20054;-54
2022/10/06 11:34:20;;;;;;;14.38;6.80;;;;;;;;;;6162451;28;20117;-55
2022/10/06 11:37:43;;;;;;;13.68;7.32;;;;;;;;;;6160777;28;20081;-53
2022/10/06 11:41:08;;;;;;;12.80;7.47;;;;;;;;;;6161132;28;20130;-54
2022/10/06 11:44:25;;;;;;;18.42;7.65;;;;;;;;;;6165685;28;20406;-53
2022/10/06 11:47:32;;;;;;;16.20;7.90;;;;;;;;;;6167407;28;20074;-52
2022/10/06 11:50:38;;;;;;;13.38;7.47;;;;;;;;;;6167481;28;20047;-54
2022/10/06 11:53:39;;;;;;;13.63;7.35;;;;;;;;;;6167467;28;20046;-53
2022/10/06 11:56:40;;;;;;;15.38;7.10;;;;;;;;;;6167994;28;20057;-61
2022/10/06 11:59:41;;;;;;;15.18;6.57;;;;;;;;;;6167830;28;20137;-53
2022/10/06 12:02:43;;;;;;;14.60;6.87;;;;;;;;;;6166670;28;20058;-53
2022/10/06 12:05:44;;;;;;;12.30;6.53;;;;;;;;;;6167956;28;20042;-49
2022/10/06 12:08:45;;;;;;;14.03;7.30;;;;;;;;;;6167990;28;20403;-54
2022/10/06 12:11:46;;;;;;;18.03;6.80;;;;;;;;;;6166956;28;20070;-58
2022/10/06 12:15:17;;;;;;;13.52;6.90;;;;;;;;;;6168549;28;20051;-53
2022/10/06 12:18:18;;;;;;;15.30;7.20;;;;;;;;;;6167941;28;20062;-53
2022/10/06 12:21:35;;;;;;;17.83;6.77;;;;;;;;;;6167330;28;20049;-55
2022/10/06 12:25:04;;;;;;;18.38;7.25;;;;;;;;;;6166810;28;20150;-57
2022/10/06 12:28:18;;;;;;;11.32;6.60;;;;;;;;;;6165788;28;20039;-54
2022/10/06 12:31:34;;;;;;;14.23;6.80;;;;;;;;;;6168138;28;20054;-57
2022/10/06 12:34:55;;;;;;;16.50;7.15;;;;;;;;;;6167870;28;20440;-53
2022/10/06 12:38:04;;;;;;;18.70;8.20;;;;;;;;;;6168050;28;20077;-56
2022/10/06 12:41:09;;;;;;;13.63;6.97;;;;;;;;;;6175520;28;20659;-54
2022/10/06 12:44:23;;;;;;;14.50;7.80;;;;;;;;;;6178959;28;20070;-54
2022/10/06 12:47:42;;;;;;;14.48;8.10;;;;;;;;;;6187244;28;20050;-55
2022/10/06 12:50:43;;;;;;;18.90;7.90;;;;;;;;;;6186364;28;20395;-55
2022/10/06 12:53:51;;;;;;;21.63;8.25;;;;;;;;;;6174328;28;20524;-53
2022/10/06 12:56:57;;;;;;;15.75;7.85;;;;;;;;;;6163716;28;20129;-51
2022/10/06 12:59:58;;;;;;;15.07;8.13;;;;;;;;;;6163408;28;20053;-53
2022/10/06 13:03:01;;;;;;;14.90;8.10;;;;;;;;;;6165126;28;20638;-56
2022/10/06 13:06:04;;;;;;;14.20;7.85;;;;;;;;;;6164685;28;20035;-55
2022/10/06 13:09:13;;;;;;;15.85;7.50;;;;;;;;;;6165725;28;20141;-52
2022/10/06 13:12:29;;;;;;;17.67;7.75;;;;;;;;;;6164916;28;20038;-59
2022/10/06 13:15:38;;;;;;;16.42;7.90;;;;;;;;;;6164112;28;20182;-56
2022/10/06 13:18:39;;;;;;;14.50;8.25;;;;;;;;;;6163845;28;20070;-54
2022/10/06 13:21:40;;;;;;;16.07;7.73;;;;;;;;;;6163240;28;20065;-57
2022/10/06 13:24:40;;;;;;;12.67;7.40;;;;;;;;;;6161609;28;20494;-58
2022/10/06 13:27:50;;;;;;;18.73;8.40;;;;;;;;;;6164916;28;20449;-57
2022/10/06 13:30:53;;;;;;;18.83;8.68;;;;;;;;;;6165505;28;20062;-54
2022/10/06 13:33:58;;;;;;;15.68;8.25;;;;;;;;;;6161825;28;20047;-55
2022/10/06 13:37:00;;;;;;;14.77;8.20;;;;;;;;;;6164957;28;20082;-59
2022/10/06 13:40:00;;;;;;;16.83;7.88;;;;;;;;;;6164923;28;20057;-58
2022/10/06 13:43:01;;;;;;;16.70;7.72;;;;;;;;;;6157348;28;20585;-58
2022/10/06 13:46:08;;;;;;;14.00;7.90;;;;;;;;;;6154842;28;20058;-55
2022/10/06 13:49:24;;;;;;;18.88;7.95;;;;;;;;;;6157026;28;20577;-57
2022/10/06 13:52:37;;;;;;;14.05;7.70;;;;;;;;;;6150800;28;20987;-57
2022/10/06 13:55:38;;;;;;;15.32;8.10;;;;;;;;;;6149482;28;20104;-60
2022/10/06 13:58:40;;;;;;;15.60;8.23;;;;;;;;;;6152272;28;20050;-57
2022/10/06 14:01:41;;;;;;;;;;;;;;;;;;6152144;28;20051;-53
2022/10/06 14:04:42;;;;;;;17.23;8.75;;;;;;;;;;6150644;28;20286;-49
2022/10/06 14:07:43;;;;;;;20.77;9.88;;;;;;;;;;6153624;28;20051;-52
2022/10/06 14:10:57;;;;;;;20.37;10.50;;;;;;;;;;6157797;28;20077;-58
2022/10/06 14:14:04;;;;;;;20.38;9.68;;;;;;;;;;6157464;28;20895;-52
2022/10/06 14:17:05;;;;;;;20.10;9.80;;;;;;;;;;6156603;28;20043;-56
2022/10/06 14:20:47;;;;;;;21.33;10.20;;;;;;;;;;6158247;28;20039;-61
2022/10/06 14:23:52;;;;;;;18.45;9.38;;;;;;;;;;6154171;28;21081;-54
2022/10/06 14:27:00;;;;;;;22.42;9.75;;;;;;;;;;6156421;28;20525;-51
2022/10/06 14:30:00;;;;;;;17.42;9.23;;;;;;;;;;6156908;28;20197;-58
2022/10/06 14:33:01;;;;;;;22.23;9.98;;;;;;;;;;6158281;28;20035;-56
2022/10/06 14:36:02;;;;;;;21.58;10.45;;;;;;;;;;6156253;28;20182;-61
2022/10/06 14:39:05;;;;;;;20.17;10.23;;;;;;;;;;6151396;28;20043;-52
2022/10/06 14:42:07;;;;;;;22.77;9.80;;;;;;;;;;6157384;28;20051;-60
2022/10/06 14:45:07;;;;;;;19.98;9.68;;;;;;;;;;6148794;28;20054;-58
2022/10/06 14:48:09;;;;;;;19.57;9.60;;;;;;;;;;6150482;28;20043;-61
2022/10/06 14:51:10;;;;;;;17.85;9.07;;;;;;;;;;6149154;28;20456;-59
2022/10/06 14:54:11;;;;;;;18.23;8.87;;;;;;;;;;6151096;28;20050;-55
2022/10/06 14:57:12;;;;;;;17.23;8.60;;;;;;;;;;6153102;28;20054;-61
2022/10/06 15:00:13;;;;;;;20.13;8.68;;;;;;;;;;6151094;28;20387;-57
2022/10/06 15:03:14;;;;;;;17.00;8.68;;;;;;;;;;6149895;28;20185;-55
2022/10/06 15:09:47;;;;;;;20.35;9.98;;;;;;;;;;6132956;28;20462;-52
2022/10/06 15:12:49;;;;;;;23.08;11.10;;;;;;;;;;6148834;28;20075;-60
2022/10/06 15:15:56;;;;;;;20.65;10.68;;;;;;;;;;6151874;28;20082;-60
2022/10/06 15:18:58;;;;;;;21.85;11.77;;;;;;;;;;6152260;28;20663;-59
2022/10/06 15:21:59;;;;;;;23.05;12.93;;;;;;;;;;6150359;28;20186;-58
2022/10/06 15:25:02;;;;;;;27.30;12.57;;;;;;;;;;6149695;28;20101;-60
2022/10/06 15:31:23;;;;;;;21.08;11.95;;;;;;;;;;6151145;28;20141;-56
2022/10/06 15:34:25;;;;;;;24.25;13.00;;;;;;;;;;6148075;28;20145;-61
2022/10/06 15:37:26;;;;;;;27.17;12.35;;;;;;;;;;6150910;28;20082;-57
2022/10/06 15:40:26;;;;;;;26.25;12.93;;;;;;;;;;6152622;28;20061;-50
2022/10/06 15:43:53;;;;;;;28.00;13.52;;;;;;;;;;6147346;28;20109;-49
2022/10/06 15:46:55;;;;;;;30.73;15.55;;;;;;;;;;6132481;28;20150;-60
2022/10/06 15:49:56;;;;;;;27.83;15.43;;;;;;;;;;6133948;28;20133;-58
2022/10/06 15:52:56;;;;;;;28.97;15.27;;;;;;;;;;6132003;28;20173;-60
2022/10/06 15:55:57;;;;;;;26.40;15.77;;;;;;;;;;6133822;28;20301;-56
2022/10/06 15:58:58;;;;;;;28.35;15.43;;;;;;;;;;6132697;28;20078;-52
2022/10/06 16:02:02;;;;;;;26.25;14.38;;;;;;;;;;6115335;29;20058;-59
2022/10/06 16:08:04;;;;;;;25.00;13.90;;;;;;;;;;6133001;29;20494;-60
2022/10/06 16:11:04;;;;;;;27.17;13.65;;;;;;;;;;6132705;29;20051;-55
2022/10/06 16:14:07;;;;;;;28.40;14.75;;;;;;;;;;6130214;28;20133;-53
2022/10/06 16:17:08;;;;;;;32.20;14.65;;;;;;;;;;6134097;29;20261;-51
2022/10/06 16:20:10;;;;;;;24.70;14.30;;;;;;;;;;6134268;28;20047;-53
2022/10/06 16:23:10;;;;;;;27.27;15.07;;;;;;;;;;6131640;28;20557;-54
2022/10/06 16:26:11;;;;;;;24.38;14.00;;;;;;;;;;6133322;28;20071;-53
2022/10/06 16:29:16;;;;;;;25.75;14.82;;;;;;;;;;6133572;28;20093;-55
2022/10/06 16:32:16;;;;;;;28.55;15.15;;;;;;;;;;6132648;29;20590;-54
2022/10/06 16:35:17;;;;;;;25.58;14.10;;;;;;;;;;6130938;29;20094;-53
2022/10/06 16:38:17;;;;;;;27.17;14.13;;;;;;;;;;6131727;28;20126;-50
2022/10/06 16:41:18;;;;;;;32.78;14.35;;;;;;;;;;6128875;28;20491;-48
2022/10/06 16:44:19;;;;;;;33.95;14.85;;;;;;;;;;6126278;28;20442;-48
2022/10/06 16:47:20;;;;;;;52.28;20.98;;;;;;;;;;6150847;28;20050;-54
2022/10/06 16:50:20;;;;;;;53.78;22.52;;;;;;;;;;6148591;28;20065;-53
2022/10/06 16:53:21;;;;;;;28.60;13.50;;;;;;;;;;6148580;28;21330;-57
2022/10/06 16:56:25;;;;;;;31.08;14.18;;;;;;;;;;6148835;28;20916;-52
2022/10/06 16:59:27;;;;;;;26.92;14.10;;;;;;;;;;6148687;28;20057;-61
2022/10/06 17:02:28;;;;;;;;;;;;;;;;;;6150545;28;20230;-55
2022/10/06 17:05:28;;;;;;;28.08;14.40;;;;;;;;;;6146834;28;19934;-56
2022/10/06 17:08:29;;;;;;;29.55;14.07;;;;;;;;;;6149028;28;20615;-53
2022/10/06 17:11:29;;;;;;;27.75;16.35;;;;;;;;;;6148681;28;20827;-48
2022/10/06 17:14:33;;;;;;;34.00;16.00;;;;;;;;;;6145236;28;20053;-50
2022/10/06 17:17:34;;;;;;;30.02;15.48;;;;;;;;;;6150713;28;20047;-59
2022/10/06 17:20:34;;;;;;;27.63;13.68;;;;;;;;;;6151253;28;20059;-49
2022/10/06 17:23:35;;;;;;;30.25;14.02;;;;;;;;;;6148061;28;20049;-50
2022/10/06 17:26:41;;;;;;;79.00;42.97;;;;;;;;;;6153137;28;20137;-58
2022/10/06 17:29:43;;;;;;;57.10;29.35;;;;;;;;;;6153133;28;20047;-56
2022/10/06 17:32:46;;;;;;;27.63;13.38;;;;;;;;;;6152763;28;20425;-60
2022/10/06 17:35:47;;;;;;;51.58;27.30;;;;;;;;;;6154308;28;20050;-52
2022/10/06 17:39:07;;;;;;;92.75;51.88;;;;;;;;;;6152751;28;20057;-48
2022/10/06 17:42:11;;;;;;;38.88;21.20;;;;;;;;;;6155248;28;20039;-47
2022/10/06 17:45:12;;;;;;;44.08;23.38;;;;;;;;;;6151803;28;20141;-49
2022/10/06 17:48:13;;;;;;;48.20;27.50;;;;;;;;;;6155802;28;20047;-55
2022/10/06 17:51:17;;;;;;;46.38;22.92;;;;;;;;;;6153044;28;20631;-50
2022/10/06 17:54:19;;;;;;;345.15;137.43;;;;;;;;;;6156594;28;20043;-47
2022/10/06 17:57:20;;;;;;;157.82;51.85;;;;;;;;;;6157150;28;20054;-48
2022/10/06 18:00:20;;;;;;;47.03;21.17;;;;;;;;;;6159615;28;20511;-55
2022/10/06 18:03:25;;;;;;;58.90;36.83;;;;;;;;;;6158173;28;20499;-50
2022/10/06 18:06:27;;;;;;;60.35;28.38;;;;;;;;;;6157647;28;20059;-49
2022/10/06 18:09:28;;;;;;;45.45;21.45;;;;;;;;;;6158539;28;20146;-50
2022/10/06 18:12:34;;;;;;;42.40;20.65;;;;;;;;;;6160492;28;20047;-48
2022/10/06 18:15:39;;;;;;;40.00;19.05;;;;;;;;;;6158408;28;20047;-55
2022/10/06 18:18:48;;;;;;;53.72;25.10;;;;;;;;;;6160032;28;20062;-51
2022/10/06 18:21:49;;;;;;;91.35;53.08;;;;;;;;;;6160121;28;20430;-51
2022/10/06 18:24:50;;;;;;;64.20;38.40;;;;;;;;;;6159370;28;20139;-52
2022/10/06 18:27:51;;;;;;;40.47;19.65;;;;;;;;;;6156930;28;20154;-54
2022/10/06 18:30:52;;;;;;;73.25;47.17;;;;;;;;;;6159263;28;20059;-50